Time;durP1;ratioP1;P1;durP2;ratioP2;P2;SDS_P1;SDS_P2;PMS_P1;PMS_P2;Temp;Humidity;BMP_temperature;BMP_pressure;BME280_temperature;BME280_humidity;BME280_pressure;Samples;Min_cycle;Max_cycle;Signal;HPM_P1;HPM_P2
2022/07/13 00:02:19;;;;;;;31.48;5.03;;;;;;;16.16;100.00;98661.75;5061574;28;20048;-58
2022/07/13 00:04:44;;;;;;;27.02;4.78;;;;;;;16.14;100.00;98654.88;5062400;28;20048;-57
2022/07/13 00:07:10;;;;;;;24.85;4.72;;;;;;;16.10;100.00;98663.84;5060780;28;20064;-57
2022/07/13 00:09:35;;;;;;;31.50;5.07;;;;;;;16.25;100.00;98656.91;5060918;28;20470;-57
2022/07/13 00:12:00;;;;;;;31.23;4.93;;;;;;;16.09;100.00;98662.16;5059412;28;20068;-57
2022/07/13 00:14:26;;;;;;;23.92;4.35;;;;;;;16.08;100.00;98661.31;5062101;28;20028;-57
2022/07/13 00:16:51;;;;;;;32.10;5.13;;;;;;;15.97;100.00;98659.25;5059360;28;20029;-57
2022/07/13 00:19:16;;;;;;;30.95;5.28;;;;;;;16.09;100.00;98662.16;5061812;28;20025;-58
2022/07/13 00:21:42;;;;;;;24.30;4.57;;;;;;;15.43;100.00;98663.75;5059391;28;20044;-57
2022/07/13 00:24:07;;;;;;;34.33;5.45;;;;;;;15.45;100.00;98667.16;5060390;28;20025;-57
2022/07/13 00:26:32;;;;;;;32.00;5.38;;;;;;;15.40;100.00;98663.91;5059661;28;21132;-57
2022/07/13 00:28:58;;;;;;;28.02;4.90;;;;;;;15.46;100.00;98666.22;5060904;28;20035;-58
2022/07/13 00:31:23;;;;;;;31.75;5.28;;;;;;;15.05;100.00;98674.38;5059201;28;20075;-58
2022/07/13 00:33:49;;;;;;;33.72;5.32;;;;;;;14.97;100.00;98672.13;5060463;28;20024;-57
2022/07/13 00:36:14;;;;;;;29.75;5.28;;;;;;;15.14;100.00;98660.78;5059151;28;20036;-58
2022/07/13 00:38:39;;;;;;;28.30;4.75;;;;;;;15.08;100.00;98657.63;5060892;28;20032;-57
2022/07/13 00:41:05;;;;;;;31.65;5.15;;;;;;;15.17;100.00;98655.38;5058214;28;20044;-57
2022/07/13 00:43:30;;;;;;;30.23;5.05;;;;;;;15.15;100.00;98659.03;5059451;28;20028;-57
2022/07/13 00:45:56;;;;;;;31.52;5.05;;;;;;;15.02;100.00;98664.88;5059997;28;20497;-57
2022/07/13 00:48:22;;;;;;;32.20;5.07;;;;;;;15.06;100.00;98670.81;5060059;28;20028;-57
2022/07/13 00:50:47;;;;;;;30.33;5.05;;;;;;;15.02;100.00;98670.13;5058816;28;20550;-58
2022/07/13 00:53:13;;;;;;;36.92;5.60;;;;;;;15.06;100.00;98655.06;5060358;28;20131;-57
2022/07/13 00:55:39;;;;;;;28.98;4.85;;;;;;;15.10;100.00;98656.59;5058498;28;20044;-57
2022/07/13 00:58:08;;;;;;;28.70;4.93;;;;;;;15.05;100.00;98666.47;5058293;28;20044;-59
2022/07/13 01:00:36;;;;;;;33.13;5.45;;;;;;;15.03;100.00;98655.19;5057223;28;20037;-57
2022/07/13 01:03:02;;;;;;;28.65;5.05;;;;;;;15.18;100.00;98650.97;5060123;28;20032;-57
2022/07/13 01:05:27;;;;;;;31.77;5.32;;;;;;;15.15;100.00;98654.59;5059721;28;20033;-57
2022/07/13 01:07:53;;;;;;;31.20;5.13;;;;;;;14.89;100.00;98660.25;5060726;28;20035;-57
2022/07/13 01:10:19;;;;;;;39.92;5.93;;;;;;;14.93;100.00;98656.59;5060136;28;20432;-57
2022/07/13 01:12:44;;;;;;;26.73;4.97;;;;;;;14.89;100.00;98655.00;5060559;28;20074;-57
2022/07/13 01:15:10;;;;;;;25.33;4.85;;;;;;;14.76;100.00;98653.00;5059529;28;20025;-57
2022/07/13 01:17:37;;;;;;;44.63;6.25;;;;;;;14.80;100.00;98658.94;5059494;28;20025;-57
2022/07/13 01:20:04;;;;;;;50.42;7.10;;;;;;;14.58;100.00;98653.88;5059574;28;20031;-57
2022/07/13 01:22:36;;;;;;;29.88;5.35;;;;;;;14.55;100.00;98646.09;5059288;28;20041;-57
2022/07/13 01:25:04;;;;;;;31.05;5.25;;;;;;;14.46;100.00;98656.13;5059748;28;20036;-57
2022/07/13 01:27:34;;;;;;;36.40;5.88;;;;;;;14.25;100.00;98654.47;5059169;28;20881;-57
2022/07/13 01:29:59;;;;;;;44.72;6.40;;;;;;;14.13;100.00;98653.22;5060130;28;20024;-57
2022/07/13 01:32:25;;;;;;;27.95;5.07;;;;;;;14.14;100.00;98661.97;5058464;28;20043;-57
2022/07/13 01:34:50;;;;;;;35.00;5.65;;;;;;;14.32;100.00;98663.75;5059607;28;20020;-57
2022/07/13 01:37:15;;;;;;;30.38;5.07;;;;;;;14.54;100.00;98657.50;5059374;28;20049;-57
2022/07/13 01:39:41;;;;;;;42.30;6.40;;;;;;;14.32;100.00;98661.13;5059716;28;20024;-58
2022/07/13 01:42:06;;;;;;;31.13;5.00;;;;;;;14.22;100.00;98665.94;5057935;28;20039;-58
2022/07/13 01:44:31;;;;;;;27.95;5.15;;;;;;;14.24;100.00;98663.25;5059756;28;20062;-59
2022/07/13 01:46:57;;;;;;;35.42;5.63;;;;;;;14.28;100.00;98670.09;5058817;28;20040;-58
2022/07/13 01:49:22;;;;;;;30.55;5.47;;;;;;;14.26;100.00;98664.03;5059790;28;20038;-56
2022/07/13 01:51:48;;;;;;;50.60;7.10;;;;;;;14.18;100.00;98671.41;5056458;28;20040;-56
2022/07/13 01:54:13;;;;;;;33.97;5.60;;;;;;;14.29;100.00;98666.53;5059541;28;20027;-56
2022/07/13 01:56:39;;;;;;;29.83;5.25;;;;;;;14.02;100.00;98661.59;5059507;28;20028;-57
2022/07/13 01:59:04;;;;;;;39.03;6.00;;;;;;;14.10;100.00;98668.25;5059851;28;20129;-56
2022/07/13 02:01:30;;;;;;;26.85;4.75;;;;;;;14.12;100.00;98666.44;5058277;28;20035;-58
2022/07/13 02:03:55;;;;;;;38.78;5.97;;;;;;;14.04;100.00;98662.38;5058938;28;20028;-57
2022/07/13 02:06:21;;;;;;;32.60;5.43;;;;;;;14.26;100.00;98664.03;5059484;28;20113;-57
2022/07/13 02:08:46;;;;;;;32.35;5.22;;;;;;;14.26;100.00;98658.78;5060098;28;20035;-57
2022/07/13 02:11:18;;;;;;;33.90;5.60;;;;;;;14.17;100.00;98660.06;5058122;28;20036;-57
2022/07/13 02:13:45;;;;;;;34.33;5.57;;;;;;;13.99;100.00;98653.88;5058444;28;20067;-56
2022/07/13 02:16:12;;;;;;;29.35;5.28;;;;;;;13.88;100.00;98658.75;5058100;28;20052;-56
2022/07/13 02:18:37;;;;;;;35.85;5.35;;;;;;;14.11;100.00;98669.97;5058595;28;20032;-57
2022/07/13 02:21:02;;;;;;;29.48;5.30;;;;;;;14.07;100.00;98658.75;5057615;28;20051;-56
2022/07/13 02:23:28;;;;;;;36.97;5.80;;;;;;;13.98;100.00;98654.78;5058584;28;20083;-57
2022/07/13 02:25:53;;;;;;;27.60;5.00;;;;;;;13.97;100.00;98653.09;5058223;28;20032;-56
2022/07/13 02:28:18;;;;;;;28.65;5.40;;;;;;;14.16;100.00;98647.84;5058359;28;20024;-57
2022/07/13 02:30:44;;;;;;;25.33;4.85;;;;;;;14.20;100.00;98651.19;5057768;28;20048;-56
2022/07/13 02:33:11;;;;;;;29.75;5.05;;;;;;;14.21;100.00;98656.38;5058622;28;20740;-56
2022/07/13 02:35:36;;;;;;;32.75;5.38;;;;;;;14.25;100.00;98649.22;5058234;28;20787;-57
2022/07/13 02:38:02;;;;;;;28.73;5.05;;;;;;;14.16;100.00;98652.25;5058774;28;20035;-57
2022/07/13 02:40:27;;;;;;;35.70;5.65;;;;;;;14.06;100.00;98647.44;5057549;28;20086;-56
2022/07/13 02:42:52;;;;;;;28.10;5.22;;;;;;;13.84;100.00;98667.63;5058506;28;20129;-56
2022/07/13 02:45:18;;;;;;;34.20;5.70;;;;;;;13.88;100.00;98659.56;5057729;28;20119;-56
2022/07/13 02:47:43;;;;;;;39.50;6.03;;;;;;;14.00;100.00;98658.16;5059132;28;20163;-57
2022/07/13 02:50:09;;;;;;;42.05;6.22;;;;;;;13.59;100.00;98658.22;5057013;28;20034;-56
2022/07/13 02:52:34;;;;;;;37.65;5.90;;;;;;;13.67;100.00;98660.50;5058056;28;20124;-56
2022/07/13 02:54:59;;;;;;;35.38;5.32;;;;;;;14.02;100.00;98651.13;5059168;28;20071;-57
2022/07/13 02:57:25;;;;;;;32.53;5.13;;;;;;;14.00;100.00;98645.06;5057995;28;20035;-56
2022/07/13 02:59:51;;;;;;;35.90;5.43;;;;;;;14.12;100.00;98651.53;5057430;28;20024;-57
2022/07/13 03:02:18;;;;;;;39.22;6.00;;;;;;;14.13;100.00;98641.91;5056600;28;20553;-56
2022/07/13 03:04:43;;;;;;;30.92;5.35;;;;;;;14.04;100.00;98638.78;5061876;28;20114;-56
2022/07/13 03:07:09;;;;;;;34.15;5.50;;;;;;;13.86;100.00;98648.31;5061831;28;20620;-57
2022/07/13 03:09:34;;;;;;;35.17;5.70;;;;;;;13.74;100.00;98651.47;5062162;28;20036;-57
2022/07/13 03:11:59;;;;;;;29.65;4.97;;;;;;;13.66;100.00;98643.94;5060380;28;20040;-56
2022/07/13 03:14:25;;;;;;;31.67;5.07;;;;;;;14.36;100.00;98627.72;5062501;28;20541;-56
2022/07/13 03:16:50;;;;;;;41.88;6.13;;;;;;;14.41;100.00;98621.34;5061706;28;20723;-56
2022/07/13 03:19:16;;;;;;;34.83;5.35;;;;;;;14.39;100.00;98617.94;5067078;28;20055;-56
2022/07/13 03:21:41;;;;;;;31.50;5.45;;;;;;;14.48;100.00;98610.56;5060553;28;20071;-56
2022/07/13 03:24:06;;;;;;;28.50;5.30;;;;;;;14.30;100.00;98623.63;5061974;28;20025;-57
2022/07/13 03:26:32;;;;;;;29.08;5.20;;;;;;;14.13;100.00;98631.41;5062032;28;20597;-56
2022/07/13 03:28:57;;;;;;;31.38;5.47;;;;;;;14.06;100.00;98631.69;5062369;28;20115;-57
2022/07/13 03:31:23;;;;;;;32.00;5.32;;;;;;;14.22;100.00;98631.81;5059730;28;20071;-56
2022/07/13 03:33:49;;;;;;;36.00;5.55;;;;;;;14.40;100.00;98632.75;5062336;28;20035;-56
2022/07/13 03:36:14;;;;;;;31.13;5.22;;;;;;;14.27;100.00;98629.00;5061363;28;20090;-56
2022/07/13 03:38:40;;;;;;;27.90;5.28;;;;;;;14.34;100.00;98627.81;5061831;28;20028;-56
2022/07/13 03:41:05;;;;;;;35.70;5.53;;;;;;;14.83;100.00;98633.41;5061082;28;20032;-57
2022/07/13 03:43:31;;;;;;;30.83;5.28;;;;;;;14.81;100.00;98635.25;5061231;28;20381;-56
2022/07/13 03:45:57;;;;;;;36.65;5.32;;;;;;;15.02;100.00;98632.50;5060454;28;20043;-56
2022/07/13 03:48:22;;;;;;;31.98;5.15;;;;;;;14.78;100.00;98640.63;5061749;28;20517;-57
2022/07/13 03:50:48;;;;;;;26.75;5.05;;;;;;;14.95;100.00;98625.84;5060846;28;20654;-56
2022/07/13 03:53:14;;;;;;;37.15;6.00;;;;;;;15.17;100.00;98625.63;5062021;28;20028;-57
2022/07/13 03:55:41;;;;;;;30.58;5.30;;;;;;;14.75;100.00;98640.78;5061146;28;20039;-56
2022/07/13 03:58:07;;;;;;;32.78;5.32;;;;;;;14.91;100.00;98640.91;5061731;28;20035;-57
2022/07/13 04:00:32;;;;;;;25.42;4.88;;;;;;;14.76;100.00;98637.25;5060253;28;20033;-58
2022/07/13 04:02:58;;;;;;;29.95;5.40;;;;;;;14.73;100.00;98637.38;5061427;28;20036;-57
2022/07/13 04:05:24;;;;;;;32.92;5.72;;;;;;;14.79;100.00;98633.59;5061069;28;20036;-58
2022/07/13 04:07:50;;;;;;;32.53;5.38;;;;;;;14.72;100.00;98635.69;5062352;28;20030;-57
2022/07/13 04:10:18;;;;;;;39.33;5.97;;;;;;;14.87;100.00;98634.09;5059755;28;20505;-57
2022/07/13 04:12:44;;;;;;;30.15;5.25;;;;;;;15.07;100.00;98627.88;5061201;28;20661;-58
2022/07/13 04:15:09;;;;;;;39.65;5.32;;;;;;;15.67;100.00;98616.94;5059523;28;20032;-56
2022/07/13 04:17:35;;;;;;;34.67;5.60;;;;;;;15.33;100.00;98625.69;5060955;28;20055;-56
2022/07/13 04:20:00;;;;;;;42.88;6.10;;;;;;;15.15;100.00;98619.59;5060629;28;20182;-58
2022/07/13 04:22:26;;;;;;;32.67;5.35;;;;;;;15.12;100.00;98617.97;5060156;28;20033;-57
2022/07/13 04:24:51;;;;;;;31.75;5.50;;;;;;;15.20;100.00;98612.31;5061204;28;20406;-56
2022/07/13 04:27:16;;;;;;;30.33;5.25;;;;;;;15.26;100.00;98595.41;5060689;28;20110;-57
2022/07/13 04:29:42;;;;;;;36.97;6.00;;;;;;;15.38;100.00;98602.66;5061139;28;20110;-57
2022/07/13 04:32:07;;;;;;;31.25;5.30;;;;;;;15.67;100.00;98597.69;5059008;28;20147;-57
2022/07/13 04:34:32;;;;;;;26.67;4.97;;;;;;;16.00;100.00;98598.56;5061298;28;20016;-57
2022/07/13 04:36:58;;;;;;;26.33;5.00;;;;;;;16.10;100.00;98580.50;5061594;28;20033;-57
2022/07/13 04:39:23;;;;;;;28.83;4.95;;;;;;;16.53;100.00;98579.91;5061246;28;20063;-57
2022/07/13 04:41:48;;;;;;;39.75;6.18;;;;;;;16.37;100.00;98572.84;5059498;28;20119;-57
2022/07/13 04:44:14;;;;;;;32.42;5.07;;;;;;;16.61;100.00;98568.94;5060354;28;20044;-58
2022/07/13 04:46:39;;;;;;;31.85;5.38;;;;;;;16.10;100.00;98561.22;5060001;28;20120;-57
2022/07/13 04:49:04;;;;;;;27.33;5.05;;;;;;;16.28;100.00;98557.56;5060525;28;20091;-59
2022/07/13 04:51:31;;;;;;;30.48;5.47;;;;;;;16.31;100.00;98552.16;5059236;28;20032;-58
2022/07/13 04:53:57;;;;;;;35.95;5.28;;;;;;;16.03;100.00;98551.97;5060428;28;20054;-57
2022/07/13 04:56:22;;;;;;;29.08;5.07;;;;;;;16.42;100.00;98553.34;5060532;28;20075;-57
2022/07/13 04:58:48;;;;;;;30.48;5.60;;;;;;;15.94;100.00;98567.31;5060912;28;20024;-57
2022/07/13 05:01:13;;;;;;;27.42;5.07;;;;;;;16.00;100.00;98584.56;5059885;28;20549;-57
2022/07/13 05:03:38;;;;;;;32.97;5.90;;;;;;;16.07;100.00;98590.34;5059784;28;20445;-57
2022/07/13 05:06:04;;;;;;;28.50;5.32;;;;;;;16.64;100.00;98589.84;5059569;28;20127;-57
2022/07/13 05:08:29;;;;;;;26.38;5.25;;;;;;;16.82;100.00;98593.22;5062557;28;20094;-57
2022/07/13 05:10:54;;;;;;;32.92;5.70;;;;;;;16.57;100.00;98597.25;5058803;28;20756;-56
2022/07/13 05:13:20;;;;;;;42.20;5.97;;;;;;;16.74;100.00;98591.88;5060416;28;20131;-58
2022/07/13 05:15:45;;;;;;;29.08;5.43;;;;;;;17.43;100.00;98587.03;5059278;28;20067;-57
2022/07/13 05:18:11;;;;;;;31.13;5.20;;;;;;;17.09;100.00;98581.13;5059254;28;20032;-57
2022/07/13 05:20:37;;;;;;;29.75;5.13;;;;;;;18.15;100.00;98576.53;5058417;28;20039;-57
2022/07/13 05:23:03;;;;;;;30.60;5.28;;;;;;;18.44;100.00;98573.84;5059784;28;20028;-57
2022/07/13 05:25:29;;;;;;;27.77;5.10;;;;;;;18.69;100.00;98575.72;5059376;28;20041;-57
2022/07/13 05:27:54;;;;;;;27.45;5.47;;;;;;;18.74;100.00;98567.50;5059994;28;20104;-58
2022/07/13 05:30:19;;;;;;;26.55;5.03;;;;;;;19.32;100.00;98578.66;5059004;28;20027;-57
2022/07/13 05:32:45;;;;;;;22.55;4.50;;;;;;;19.33;100.00;98567.97;5059754;28;20114;-57
2022/07/13 05:35:10;;;;;;;33.15;5.80;;;;;;;18.85;100.00;98571.16;5058954;28;20027;-57
2022/07/13 05:37:36;;;;;;;31.17;5.30;;;;;;;20.32;100.00;98569.09;5059564;28;20119;-57
2022/07/13 05:40:01;;;;;;;41.40;6.47;;;;;;;19.65;100.00;98570.25;5058903;28;20020;-56
2022/07/13 05:42:28;;;;;;;30.45;5.13;;;;;;;20.13;100.00;98575.72;5058229;28;20071;-53
2022/07/13 05:44:54;;;;;;;26.42;4.57;;;;;;;20.10;100.00;98586.53;5057540;28;20275;-53
2022/07/13 05:47:19;;;;;;;31.60;5.32;;;;;;;20.04;100.00;98581.66;5054928;28;20225;-53
2022/07/13 05:49:45;;;;;;;30.45;5.18;;;;;;;20.63;100.00;98582.81;5059366;28;20027;-53
2022/07/13 05:52:13;;;;;;;24.63;4.63;;;;;;;20.94;100.00;98578.75;5055488;28;20498;-54
2022/07/13 05:54:38;;;;;;;22.58;4.82;;;;;;;21.49;100.00;98581.72;5061276;28;20040;-53
2022/07/13 05:57:05;;;;;;;21.27;4.80;;;;;;;22.87;100.00;98578.72;5066173;28;20036;-54
2022/07/13 05:59:32;;;;;;;28.08;5.32;;;;;;;26.20;93.30;98583.88;5059577;28;20832;-58
2022/07/13 06:01:58;;;;;;;26.63;5.07;;;;;;;27.96;65.53;98577.16;5057658;28;20041;-59
2022/07/13 06:04:24;;;;;;;23.13;4.65;;;;;;;26.07;65.66;98581.56;5060549;28;20036;-58
2022/07/13 06:06:49;;;;;;;34.70;5.70;;;;;;;29.03;57.03;98584.53;5056589;28;20046;-58
2022/07/13 06:09:14;;;;;;;16.08;3.80;;;;;;;28.06;57.33;98580.53;5057284;28;20025;-58
2022/07/13 06:11:40;;;;;;;20.38;4.32;;;;;;;27.05;60.49;98579.13;5054943;28;20040;-58
2022/07/13 06:14:06;;;;;;;19.35;4.50;;;;;;;27.74;57.11;98584.72;5059506;28;20427;-57
2022/07/13 06:16:32;;;;;;;22.17;4.53;;;;;;;28.08;61.32;98586.59;5057205;28;20039;-57
2022/07/13 06:18:57;;;;;;;19.40;4.47;;;;;;;29.63;56.06;98577.16;5057964;28;20057;-57
2022/07/13 06:21:22;;;;;;;24.15;4.82;;;;;;;28.72;56.34;98578.94;5056925;28;20048;-58
2022/07/13 06:23:48;;;;;;;19.55;4.25;;;;;;;30.47;50.19;98579.44;5057653;28;20032;-57
2022/07/13 06:26:14;;;;;;;22.27;4.63;;;;;;;28.15;52.04;98573.38;5057696;28;20101;-58
2022/07/13 06:28:39;;;;;;;21.42;4.70;;;;;;;28.20;54.64;98574.56;5058533;28;20037;-58
2022/07/13 06:31:05;;;;;;;22.67;4.90;;;;;;;32.27;46.14;98577.06;5056909;28;20037;-58
2022/07/13 06:33:30;;;;;;;19.13;4.55;;;;;;;32.19;43.91;98577.19;5057845;28;20028;-58
2022/07/13 06:35:55;;;;;;;23.50;4.80;;;;;;;29.08;48.67;98583.19;5056692;28;20046;-57
2022/07/13 06:38:21;;;;;;;20.98;4.88;;;;;;;27.83;49.69;98578.41;5057864;28;20756;-58
2022/07/13 06:40:47;;;;;;;21.80;5.07;;;;;;;27.27;52.09;98583.19;5056360;28;20222;-58
2022/07/13 06:43:14;;;;;;;20.02;4.40;;;;;;;28.56;51.97;98577.09;5058237;28;20028;-58
2022/07/13 06:45:39;;;;;;;18.92;4.45;;;;;;;28.76;51.72;98582.16;5057406;28;20045;-58
2022/07/13 06:48:05;;;;;;;19.52;4.22;;;;;;;28.25;51.72;98588.34;5057228;28;20032;-59
2022/07/13 06:50:30;;;;;;;24.45;4.72;;;;;;;26.59;56.55;98594.38;5056647;28;20463;-58
2022/07/13 06:52:56;;;;;;;19.08;4.18;;;;;;;27.27;60.28;98588.53;5057328;28;20035;-57
2022/07/13 06:55:21;;;;;;;17.02;3.97;;;;;;;27.34;59.19;98579.91;5055789;28;20099;-57
2022/07/13 06:57:47;;;;;;;19.42;4.00;;;;;;;26.53;59.92;98594.97;5056211;28;20498;-58
2022/07/13 07:00:13;;;;;;;26.83;4.97;;;;;;;25.63;60.43;98581.25;5055121;28;20103;-57
2022/07/13 07:02:39;;;;;;;27.92;4.90;;;;;;;25.24;69.51;98576.00;5057385;28;20009;-59
2022/07/13 07:05:07;;;;;;;26.23;4.88;;;;;;;26.77;62.40;98578.38;5057393;28;20025;-58
2022/07/13 07:07:33;;;;;;;25.25;5.13;;;;;;;26.48;67.28;98565.16;5057468;28;20024;-58
2022/07/13 07:09:58;;;;;;;27.63;5.35;;;;;;;25.38;64.03;98566.69;5057559;28;20040;-59
2022/07/13 07:12:23;;;;;;;22.38;4.47;;;;;;;25.02;70.49;98561.06;5056472;28;20187;-57
2022/07/13 07:14:49;;;;;;;20.13;4.18;;;;;;;24.74;77.48;98568.06;5057849;28;20025;-57
2022/07/13 07:17:16;;;;;;;26.23;4.78;;;;;;;24.93;86.08;98569.94;5056943;28;20040;-57
2022/07/13 07:19:41;;;;;;;24.77;4.90;;;;;;;25.94;74.64;98573.88;5057341;28;20016;-59
2022/07/13 07:22:07;;;;;;;26.67;4.70;;;;;;;25.28;81.72;98566.69;5056276;28;20063;-59
2022/07/13 07:24:32;;;;;;;20.88;3.97;;;;;;;25.30;80.85;98563.88;5057370;28;20020;-58
2022/07/13 07:26:58;;;;;;;33.53;5.65;;;;;;;25.21;78.60;98558.38;5057674;28;20039;-58
2022/07/13 07:29:23;;;;;;;19.80;4.00;;;;;;;24.93;79.70;98551.25;5057638;28;20055;-58
2022/07/13 07:32:07;;;;;;;23.92;4.63;;;;;;;25.30;78.09;98562.06;5055981;28;20040;-59
2022/07/13 07:34:33;;;;;;;23.05;4.53;;;;;;;26.35;71.67;98558.31;5057259;28;20038;-58
2022/07/13 07:36:58;;;;;;;21.42;4.00;;;;;;;25.31;74.25;98552.22;5057158;28;20059;-58
2022/07/13 07:39:23;;;;;;;24.83;4.43;;;;;;;25.58;68.64;98536.28;5057983;28;20028;-59
2022/07/13 07:41:49;;;;;;;23.55;4.22;;;;;;;26.09;68.58;98522.59;5056016;28;20116;-58
2022/07/13 07:44:15;;;;;;;16.88;3.58;;;;;;;26.37;63.57;98522.56;5058804;28;20044;-58
2022/07/13 07:46:41;;;;;;;21.00;3.90;;;;;;;25.66;65.94;98522.19;5057726;28;20088;-60
2022/07/13 07:49:06;;;;;;;15.43;3.58;;;;;;;26.67;60.64;98511.56;5059270;28;20808;-60
2022/07/13 07:51:32;;;;;;;22.50;3.97;;;;;;;26.54;60.96;98524.41;5059935;28;20040;-59
2022/07/13 07:53:57;;;;;;;22.02;3.67;;;;;;;27.05;61.15;98517.53;5061314;28;20030;-59
2022/07/13 07:56:23;;;;;;;21.90;3.83;;;;;;;26.84;60.56;98519.72;5061277;28;20106;-59
2022/07/13 07:58:49;;;;;;;24.20;4.03;;;;;;;27.22;60.04;98515.84;5060708;28;20143;-58
2022/07/13 08:01:14;;;;;;;16.33;3.67;;;;;;;26.66;60.77;98514.38;5060376;28;20045;-59
2022/07/13 08:03:40;;;;;;;21.42;4.00;;;;;;;28.55;54.93;98513.69;5060983;28;20036;-59
2022/07/13 08:06:05;;;;;;;21.40;3.97;;;;;;;28.25;55.04;98517.75;5061880;28;20037;-58
2022/07/13 08:08:31;;;;;;;18.38;3.88;;;;;;;27.22;56.24;98521.22;5060951;28;20119;-60
2022/07/13 08:10:56;;;;;;;18.45;3.80;;;;;;;29.17;54.14;98525.81;5059473;28;20036;-59
2022/07/13 08:13:21;;;;;;;15.25;3.30;;;;;;;29.24;59.23;98529.50;5060621;28;20069;-58
2022/07/13 08:15:47;;;;;;;19.08;3.60;;;;;;;29.08;53.34;98524.97;5059786;28;20441;-58
2022/07/13 08:18:12;;;;;;;14.10;3.10;;;;;;;29.19;50.76;98526.50;5060538;28;20064;-58
2022/07/13 08:20:38;;;;;;;15.38;3.47;;;;;;;30.26;50.37;98521.66;5060369;28;20494;-58
2022/07/13 08:23:50;;;;;;;17.48;3.38;;;;;;;29.63;50.90;98526.09;5061721;28;20060;-60
2022/07/13 08:25:48;;;;;;;16.80;3.50;;;;;;;30.89;48.02;98525.13;5061907;28;20044;-60
2022/07/13 08:28:14;;;;;;;19.60;3.55;;;;;;;30.68;49.88;98530.38;5060468;28;20035;-59
2022/07/13 08:30:41;;;;;;;17.10;3.60;;;;;;;31.23;50.10;98525.72;5059303;28;20051;-58
2022/07/13 08:33:06;;;;;;;15.55;3.60;;;;;;;31.13;47.70;98520.59;5060724;28;20040;-58
2022/07/13 08:41:00;;;;;;;13.40;3.03;;;;;;;33.36;40.62;98511.28;5059176;28;20148;-58
2022/07/13 08:43:26;;;;;;;12.07;2.80;;;;;;;34.89;38.33;98516.59;5059337;28;20402;-59
2022/07/13 08:45:52;;;;;;;13.43;2.83;;;;;;;32.41;39.91;98503.34;5060713;28;20510;-61
2022/07/13 08:48:24;;;;;;;13.95;2.90;;;;;;;31.87;40.09;98512.63;5060650;28;20088;-58
2022/07/13 08:50:50;;;;;;;14.70;2.85;;;;;;;32.33;40.55;98495.38;5058587;28;20037;-59
2022/07/13 08:53:15;;;;;;;13.20;3.13;;;;;;;32.20;40.20;98500.59;5059455;28;20024;-58
2022/07/13 08:55:41;;;;;;;11.38;2.95;;;;;;;33.36;39.00;98508.59;5059831;28;20067;-59
2022/07/13 08:58:06;;;;;;;11.30;2.80;;;;;;;32.12;41.11;98503.41;5061407;28;20037;-58
2022/07/13 09:00:32;;;;;;;17.48;3.17;;;;;;;32.55;39.75;98503.47;5059758;28;20139;-57
2022/07/13 09:02:58;;;;;;;13.77;2.70;;;;;;;32.15;41.10;98505.72;5060405;28;20028;-58
2022/07/13 09:05:26;;;;;;;12.73;2.92;;;;;;;31.98;40.11;98505.91;5060122;28;20055;-58
2022/07/13 09:08:02;;;;;;;15.05;3.35;;;;;;;31.21;40.58;98507.06;5059688;28;20040;-58
2022/07/13 09:10:28;;;;;;;18.88;3.33;;;;;;;32.32;41.18;98504.47;5059044;28;20128;-59
2022/07/13 09:12:53;;;;;;;12.85;3.15;;;;;;;32.94;41.63;98508.47;5059970;28;20105;-58
2022/07/13 09:15:18;;;;;;;17.63;3.45;;;;;;;30.67;41.76;98515.22;5060285;28;20473;-58
2022/07/13 09:17:44;;;;;;;16.45;3.85;;;;;;;32.35;43.05;98509.50;5060815;28;20269;-59
2022/07/13 09:20:12;;;;;;;18.60;3.85;;;;;;;32.80;39.49;98502.09;5061061;28;20040;-58
2022/07/13 09:22:53;;;;;;;15.10;3.25;;;;;;;34.78;37.99;98514.47;5059154;28;20368;-58
2022/07/13 09:25:37;;;;;;;19.00;3.00;;;;;;;35.19;35.36;98510.78;5059672;28;20083;-58
2022/07/13 09:28:12;;;;;;;11.40;2.95;;;;;;;33.94;36.12;98506.47;5060389;28;20278;-58
2022/07/13 09:30:42;;;;;;;12.88;3.05;;;;;;;33.49;36.59;98500.59;5058200;28;20356;-58
2022/07/13 09:33:08;;;;;;;12.15;3.00;;;;;;;33.04;35.63;98508.13;5041397;28;20052;-59
2022/07/13 09:35:46;;;;;;;12.43;3.15;;;;;;;34.32;34.54;98508.75;5059261;28;20060;-58
2022/07/13 09:38:35;;;;;;;12.32;3.15;;;;;;;33.08;35.93;98497.75;5059914;28;20037;-58
2022/07/13 09:41:19;;;;;;;11.02;2.67;;;;;;;33.01;35.42;98500.38;5058806;28;20064;-58
2022/07/13 09:47:05;;;;;;;9.93;2.60;;;;;;;34.09;34.00;98484.66;5015801;28;20156;-58
2022/07/13 09:49:34;;;;;;;12.75;3.17;;;;;;;34.24;33.43;98487.25;5055687;28;20028;-58
2022/07/13 09:52:02;;;;;;;11.85;2.83;;;;;;;36.32;31.61;98493.38;5057841;28;20036;-58
2022/07/13 09:54:28;;;;;;;15.55;2.60;;;;;;;34.30;33.92;98491.88;5059554;28;20055;-59
2022/07/13 09:56:58;;;;;;;10.68;2.75;;;;;;;34.99;32.81;98487.19;5059124;28;20422;-58
2022/07/13 09:59:25;;;;;;;13.20;2.70;;;;;;;36.74;30.99;98488.34;5059388;28;20121;-58
2022/07/13 10:01:51;;;;;;;14.50;3.42;;;;;;;36.01;30.93;98484.09;5058221;28;20044;-59
2022/07/13 10:04:17;;;;;;;10.73;3.03;;;;;;;35.33;31.35;98474.50;5059204;28;20024;-61
2022/07/13 10:06:43;;;;;;;10.13;2.80;;;;;;;36.61;30.42;98473.78;5058998;28;20454;-59
2022/07/13 10:09:09;;;;;;;8.60;2.75;;;;;;;36.35;29.21;98473.94;5060395;28;20802;-59
2022/07/13 10:11:34;;;;;;;7.15;2.30;;;;;;;35.85;29.86;98472.69;5058295;28;20037;-59
2022/07/13 10:13:59;;;;;;;7.28;2.30;;;;;;;36.15;30.23;98482.16;5058245;28;20044;-60
2022/07/13 10:16:29;;;;;;;10.13;2.60;;;;;;;35.69;29.64;98478.59;5058046;28;20994;-58
2022/07/13 10:18:57;;;;;;;9.25;2.58;;;;;;;36.11;30.59;98479.06;5060375;28;20029;-58
2022/07/13 10:21:46;;;;;;;10.20;2.72;;;;;;;34.32;31.09;98481.66;5058094;28;20135;-58
2022/07/13 10:24:16;;;;;;;11.73;2.55;;;;;;;33.23;32.01;98480.44;5059372;28;20047;-59
2022/07/13 10:26:41;;;;;;;9.88;2.75;;;;;;;33.68;32.31;98474.72;5060342;28;20041;-58
2022/07/13 10:29:11;;;;;;;9.90;3.00;;;;;;;32.57;32.78;98479.81;5058508;28;20067;-58
2022/07/13 10:31:38;;;;;;;9.98;2.72;;;;;;;33.94;32.68;98476.69;5057375;28;20629;-58
2022/07/13 10:34:05;;;;;;;11.25;2.85;;;;;;;32.91;33.10;98475.59;5059186;28;20031;-58
2022/07/13 10:36:52;;;;;;;13.05;3.25;;;;;;;32.96;33.09;98475.84;5057981;28;20177;-59
2022/07/13 10:39:20;;;;;;;11.00;2.70;;;;;;;33.26;33.39;98473.81;5058528;28;20075;-58
2022/07/13 10:41:57;;;;;;;16.48;3.72;;;;;;;33.77;32.59;98469.97;5056721;28;20036;-58
2022/07/13 10:44:40;;;;;;;13.27;2.75;;;;;;;34.55;31.59;98465.03;5059566;28;20031;-58
2022/07/13 10:47:08;;;;;;;9.90;2.42;;;;;;;35.60;30.24;98460.84;5058109;28;20044;-58
2022/07/13 10:49:51;;;;;;;8.35;2.58;;;;;;;36.06;30.02;98462.56;5058447;28;20036;-58
2022/07/13 10:52:25;;;;;;;13.60;2.80;;;;;;;35.35;29.99;98466.97;5056944;28;20051;-58
2022/07/13 10:55:16;;;;;;;12.80;2.90;;;;;;;37.61;28.06;98469.41;5059379;28;20371;-58
2022/07/13 10:57:42;;;;;;;9.90;2.67;;;;;;;35.78;30.00;98461.03;5056325;28;20075;-59
2022/07/13 11:00:19;;;;;;;11.77;2.80;;;;;;;34.90;28.88;98456.75;5057883;28;20048;-60
2022/07/13 11:02:50;;;;;;;10.32;2.65;;;;;;;34.72;29.64;98446.56;5058455;28;20543;-59
2022/07/13 11:05:18;;;;;;;8.52;2.40;;;;;;;34.54;30.09;98459.84;5057554;28;20405;-59
2022/07/13 11:07:48;;;;;;;11.18;2.65;;;;;;;35.20;30.62;98441.94;5059392;28;20021;-58
2022/07/13 11:10:25;;;;;;;10.48;2.72;;;;;;;35.47;30.31;98440.84;5057621;28;20060;-60
2022/07/13 11:13:12;;;;;;;10.90;2.58;;;;;;;34.35;31.08;98439.78;5057007;28;20111;-59
2022/07/13 11:15:50;;;;;;;6.95;2.25;;;;;;;33.75;30.36;98440.41;5057915;28;20167;-59
2022/07/13 11:18:22;;;;;;;9.73;2.78;;;;;;;34.44;30.43;98443.16;5058662;28;20869;-59
2022/07/13 11:21:05;;;;;;;;;;;;;;;35.04;28.71;98430.47;5057932;28;20044;-58
2022/07/13 11:26:46;;;;;;;15.77;2.72;;;;;;;33.35;31.46;98433.94;5062542;28;20079;-59
2022/07/13 11:29:24;;;;;;;13.65;2.90;;;;;;;33.70;30.89;98428.53;5062090;28;20123;-60
2022/07/13 11:31:55;;;;;;;15.25;3.17;;;;;;;33.97;31.12;98427.59;5060572;28;20453;-58
2022/07/13 11:34:21;;;;;;;15.63;2.70;;;;;;;34.14;29.26;98416.41;5062095;28;20593;-58